WMKM

Details ICAO WMKM (MKZ)
Name Malacca
Region Malaysia (Peninsular Malaysia)
Timezone Asia/Kuala_Lumpur (UTC+8.0)
Plans Departing 33
Arriving 57
Stats Elevation 35 ft / 11 m (AMSL)
Location 2.263360° 102.252000°
Runways 1
Magnetic Variation 0.071° E
Sunrise 2019-04-21 23:05:24 UTC / 2019-04-22 07:05:24 Local
Sunset 2019-04-22 11:16:04 UTC / 2019-04-22 19:16:04 Local
Advertisement - Login to hide

Runways

ID Width Length Bearing (true/mag) Surface Threshold Overrun Markings Lighting
03 121 ft / 37 m 4,523 ft / 1,379 m 29.93° / 29.86° ASPHALT 0 ft / 0 m 200 ft / 61 m APP EDGE THRESHOLD
21 121 ft / 37 m 4,523 ft / 1,379 m 209.93° / 209.86° ASPHALT 0 ft / 0 m 200 ft / 61 m APP EDGE THRESHOLD

Map

Weather


0- 5 10 15 20 25 30 35+ Temperature / °C

Clouds and Precipitation
Forecast for 2019-04-22 12:00 UTC. Updated 25 minutes ago

Ground ~20,000 ft ~40,000 ft Winds

METAR

WMKM 221000Z VRB03KT 9999 FEW017CB BKN140 31/25 Q1005

TAF

TAF WMKM 220500Z 2206/2306 13005KT 9999 FEW020 TEMPO 2207/2211 20005KT 4000 TSRA FEW010 FEW017CB SCT020 BECMG 2212/2214 VRB02KT FEW027 BECMG 2220/2222 4000 HZ FEW010 BECMG 2301/2303 9999 NSW FEW020

Frequencies

Ground 121.60 MHz
Tower 118.00 MHz
Warning: Do not use this data for real-world aviation or navigation. No guarantee of current accuracy is given.